sensor_id;sensor_type;location;lat;lon;timestamp;temperature;humidity
42099;DHT22;27758;55.900;8.516;2023-06-26T00:00:32;17.70;99.90
42099;DHT22;27758;55.900;8.516;2023-06-26T00:02:58;17.70;99.90
42099;DHT22;27758;55.900;8.516;2023-06-26T00:05:24;17.70;99.90
42099;DHT22;27758;55.900;8.516;2023-06-26T00:07:49;17.70;99.90
42099;DHT22;27758;55.900;8.516;2023-06-26T00:10:15;17.60;99.90
42099;DHT22;27758;55.900;8.516;2023-06-26T00:12:41;17.60;99.90
42099;DHT22;27758;55.900;8.516;2023-06-26T00:15:07;17.60;99.90
42099;DHT22;27758;55.900;8.516;2023-06-26T00:17:34;17.60;99.90
42099;DHT22;27758;55.900;8.516;2023-06-26T00:20:03;17.60;99.90
42099;DHT22;27758;55.900;8.516;2023-06-26T00:22:30;17.60;99.90
42099;DHT22;27758;55.900;8.516;2023-06-26T00:24:56;17.50;99.90
42099;DHT22;27758;55.900;8.516;2023-06-26T00:27:22;17.50;99.90
42099;DHT22;27758;55.900;8.516;2023-06-26T00:29:47;17.50;99.90
42099;DHT22;27758;55.900;8.516;2023-06-26T00:32:13;17.60;99.90
42099;DHT22;27758;55.900;8.516;2023-06-26T00:34:39;17.50;99.90
42099;DHT22;27758;55.900;8.516;2023-06-26T00:37:04;17.50;99.90
42099;DHT22;27758;55.900;8.516;2023-06-26T00:39:30;17.50;99.90
42099;DHT22;27758;55.900;8.516;2023-06-26T00:41:56;17.40;99.90
42099;DHT22;27758;55.900;8.516;2023-06-26T00:44:21;17.40;99.90
42099;DHT22;27758;55.900;8.516;2023-06-26T00:46:47;17.40;99.90
42099;DHT22;27758;55.900;8.516;2023-06-26T00:49:13;17.40;99.90
42099;DHT22;27758;55.900;8.516;2023-06-26T00:51:40;17.40;99.90
42099;DHT22;27758;55.900;8.516;2023-06-26T00:54:05;17.40;99.90
42099;DHT22;27758;55.900;8.516;2023-06-26T00:56:32;17.40;99.90
42099;DHT22;27758;55.900;8.516;2023-06-26T00:58:59;17.40;99.90
42099;DHT22;27758;55.900;8.516;2023-06-26T01:01:25;17.40;99.90
42099;DHT22;27758;55.900;8.516;2023-06-26T01:03:52;17.30;99.90
42099;DHT22;27758;55.900;8.516;2023-06-26T01:06:21;17.30;99.90
42099;DHT22;27758;55.900;8.516;2023-06-26T01:08:47;17.40;99.90
42099;DHT22;27758;55.900;8.516;2023-06-26T01:11:14;17.30;99.90
42099;DHT22;27758;55.900;8.516;2023-06-26T01:13:42;17.30;99.90
42099;DHT22;27758;55.900;8.516;2023-06-26T01:16:09;17.30;99.90
42099;DHT22;27758;55.900;8.516;2023-06-26T01:18:38;17.40;99.90
42099;DHT22;27758;55.900;8.516;2023-06-26T01:21:09;17.40;99.90
42099;DHT22;27758;55.900;8.516;2023-06-26T01:26:20;17.40;99.90
42099;DHT22;27758;55.900;8.516;2023-06-26T01:28:47;17.40;99.90
42099;DHT22;27758;55.900;8.516;2023-06-26T01:31:15;17.40;99.90
42099;DHT22;27758;55.900;8.516;2023-06-26T01:33:41;17.50;99.90
42099;DHT22;27758;55.900;8.516;2023-06-26T01:36:08;17.50;99.90
42099;DHT22;27758;55.900;8.516;2023-06-26T01:38:34;17.50;99.90
42099;DHT22;27758;55.900;8.516;2023-06-26T01:41:03;17.50;99.90
42099;DHT22;27758;55.900;8.516;2023-06-26T01:46:23;17.50;99.90
42099;DHT22;27758;55.900;8.516;2023-06-26T01:51:43;17.50;99.90
42099;DHT22;27758;55.900;8.516;2023-06-26T01:54:20;17.60;99.90
42099;DHT22;27758;55.900;8.516;2023-06-26T01:56:49;17.60;99.90
42099;DHT22;27758;55.900;8.516;2023-06-26T01:59:15;17.60;99.90
42099;DHT22;27758;55.900;8.516;2023-06-26T02:01:42;17.60;99.90
42099;DHT22;27758;55.900;8.516;2023-06-26T02:04:08;17.60;99.90
42099;DHT22;27758;55.900;8.516;2023-06-26T02:06:33;17.70;99.90
42099;DHT22;27758;55.900;8.516;2023-06-26T02:08:59;17.60;99.90
42099;DHT22;27758;55.900;8.516;2023-06-26T02:11:25;17.70;99.90
42099;DHT22;27758;55.900;8.516;2023-06-26T02:13:51;17.70;99.90
42099;DHT22;27758;55.900;8.516;2023-06-26T02:16:17;17.70;99.90
42099;DHT22;27758;55.900;8.516;2023-06-26T02:18:42;17.70;99.90
42099;DHT22;27758;55.900;8.516;2023-06-26T02:21:10;17.80;99.90
42099;DHT22;27758;55.900;8.516;2023-06-26T02:23:36;17.80;99.90
42099;DHT22;27758;55.900;8.516;2023-06-26T02:26:02;17.80;99.90
42099;DHT22;27758;55.900;8.516;2023-06-26T02:28:28;17.80;99.90
42099;DHT22;27758;55.900;8.516;2023-06-26T02:30:53;17.90;99.90
42099;DHT22;27758;55.900;8.516;2023-06-26T02:33:19;17.80;99.90
42099;DHT22;27758;55.900;8.516;2023-06-26T02:35:45;17.80;99.90
42099;DHT22;27758;55.900;8.516;2023-06-26T02:38:10;17.80;99.90
42099;DHT22;27758;55.900;8.516;2023-06-26T02:40:38;17.80;99.90
42099;DHT22;27758;55.900;8.516;2023-06-26T02:43:04;17.90;99.90
42099;DHT22;27758;55.900;8.516;2023-06-26T02:45:29;17.90;99.90
42099;DHT22;27758;55.900;8.516;2023-06-26T02:47:55;18.00;99.90
42099;DHT22;27758;55.900;8.516;2023-06-26T02:50:20;18.00;99.90
42099;DHT22;27758;55.900;8.516;2023-06-26T02:52:46;18.00;99.90
42099;DHT22;27758;55.900;8.516;2023-06-26T02:55:20;18.00;99.90
42099;DHT22;27758;55.900;8.516;2023-06-26T02:57:46;18.00;99.90
42099;DHT22;27758;55.900;8.516;2023-06-26T03:00:12;18.00;99.90
42099;DHT22;27758;55.900;8.516;2023-06-26T03:02:38;18.10;99.90
42099;DHT22;27758;55.900;8.516;2023-06-26T03:05:04;18.10;99.90
42099;DHT22;27758;55.900;8.516;2023-06-26T03:07:30;18.10;99.90
42099;DHT22;27758;55.900;8.516;2023-06-26T03:09:56;18.20;99.90
42099;DHT22;27758;55.900;8.516;2023-06-26T03:12:22;18.10;99.90
42099;DHT22;27758;55.900;8.516;2023-06-26T03:14:48;18.10;99.90
42099;DHT22;27758;55.900;8.516;2023-06-26T03:17:13;18.20;99.90
42099;DHT22;27758;55.900;8.516;2023-06-26T03:19:39;18.20;99.90
42099;DHT22;27758;55.900;8.516;2023-06-26T03:22:05;18.30;99.90
42099;DHT22;27758;55.900;8.516;2023-06-26T03:24:31;18.20;99.90
42099;DHT22;27758;55.900;8.516;2023-06-26T03:26:56;18.20;99.90
42099;DHT22;27758;55.900;8.516;2023-06-26T03:29:22;18.20;99.90
42099;DHT22;27758;55.900;8.516;2023-06-26T03:31:48;18.30;99.90
42099;DHT22;27758;55.900;8.516;2023-06-26T03:34:13;18.30;99.90
42099;DHT22;27758;55.900;8.516;2023-06-26T03:36:39;18.40;99.90
42099;DHT22;27758;55.900;8.516;2023-06-26T03:39:05;18.50;99.90
42099;DHT22;27758;55.900;8.516;2023-06-26T03:41:30;18.50;99.90
42099;DHT22;27758;55.900;8.516;2023-06-26T03:43:56;18.60;99.90
42099;DHT22;27758;55.900;8.516;2023-06-26T03:46:22;18.60;99.90
42099;DHT22;27758;55.900;8.516;2023-06-26T03:48:48;18.60;99.90
42099;DHT22;27758;55.900;8.516;2023-06-26T03:51:14;18.70;99.90
42099;DHT22;27758;55.900;8.516;2023-06-26T03:53:40;18.70;99.90
42099;DHT22;27758;55.900;8.516;2023-06-26T03:56:06;18.80;99.90
42099;DHT22;27758;55.900;8.516;2023-06-26T03:58:31;18.80;99.90
42099;DHT22;27758;55.900;8.516;2023-06-26T04:00:57;18.90;99.90
42099;DHT22;27758;55.900;8.516;2023-06-26T04:03:23;18.90;99.90
42099;DHT22;27758;55.900;8.516;2023-06-26T04:05:49;19.00;99.90
42099;DHT22;27758;55.900;8.516;2023-06-26T04:08:15;19.00;99.90
42099;DHT22;27758;55.900;8.516;2023-06-26T04:10:40;19.10;99.90
42099;DHT22;27758;55.900;8.516;2023-06-26T04:13:06;19.20;99.90
42099;DHT22;27758;55.900;8.516;2023-06-26T04:15:32;19.30;99.90
42099;DHT22;27758;55.900;8.516;2023-06-26T04:17:57;19.30;99.90
42099;DHT22;27758;55.900;8.516;2023-06-26T04:20:23;19.40;99.90
42099;DHT22;27758;55.900;8.516;2023-06-26T04:22:49;19.40;99.90
42099;DHT22;27758;55.900;8.516;2023-06-26T04:25:15;19.50;99.90
42099;DHT22;27758;55.900;8.516;2023-06-26T04:27:40;19.50;99.90
42099;DHT22;27758;55.900;8.516;2023-06-26T04:30:07;19.50;99.90
42099;DHT22;27758;55.900;8.516;2023-06-26T04:32:33;19.60;99.90
42099;DHT22;27758;55.900;8.516;2023-06-26T04:34:59;19.60;99.90
42099;DHT22;27758;55.900;8.516;2023-06-26T04:37:25;19.60;99.90
42099;DHT22;27758;55.900;8.516;2023-06-26T04:39:51;19.60;99.90
42099;DHT22;27758;55.900;8.516;2023-06-26T04:42:17;19.60;99.90
42099;DHT22;27758;55.900;8.516;2023-06-26T04:44:43;19.60;99.90
42099;DHT22;27758;55.900;8.516;2023-06-26T04:47:09;19.60;99.90
42099;DHT22;27758;55.900;8.516;2023-06-26T04:49:34;19.70;99.90
42099;DHT22;27758;55.900;8.516;2023-06-26T04:52:00;19.70;99.90
42099;DHT22;27758;55.900;8.516;2023-06-26T04:54:26;19.80;99.90
42099;DHT22;27758;55.900;8.516;2023-06-26T04:56:53;19.90;99.90
42099;DHT22;27758;55.900;8.516;2023-06-26T04:59:19;20.00;99.90
42099;DHT22;27758;55.900;8.516;2023-06-26T05:01:44;20.00;99.90
42099;DHT22;27758;55.900;8.516;2023-06-26T05:04:14;20.10;99.90
42099;DHT22;27758;55.900;8.516;2023-06-26T05:06:41;20.20;99.90
42099;DHT22;27758;55.900;8.516;2023-06-26T05:09:07;20.30;99.90
42099;DHT22;27758;55.900;8.516;2023-06-26T05:11:32;20.40;99.90
42099;DHT22;27758;55.900;8.516;2023-06-26T05:13:58;20.50;99.90
42099;DHT22;27758;55.900;8.516;2023-06-26T05:16:24;20.60;99.90
42099;DHT22;27758;55.900;8.516;2023-06-26T05:18:49;20.70;99.90
42099;DHT22;27758;55.900;8.516;2023-06-26T05:21:16;20.80;99.90
42099;DHT22;27758;55.900;8.516;2023-06-26T05:23:42;20.90;99.90
42099;DHT22;27758;55.900;8.516;2023-06-26T05:26:10;21.00;99.90
42099;DHT22;27758;55.900;8.516;2023-06-26T05:28:37;21.20;99.90
42099;DHT22;27758;55.900;8.516;2023-06-26T05:31:03;21.20;99.90
42099;DHT22;27758;55.900;8.516;2023-06-26T05:33:31;21.30;99.90
42099;DHT22;27758;55.900;8.516;2023-06-26T05:35:59;21.40;99.90
42099;DHT22;27758;55.900;8.516;2023-06-26T05:38:25;21.50;99.90
42099;DHT22;27758;55.900;8.516;2023-06-26T05:40:51;21.60;99.90
42099;DHT22;27758;55.900;8.516;2023-06-26T05:43:17;21.70;99.90
42099;DHT22;27758;55.900;8.516;2023-06-26T05:45:47;21.90;99.90
42099;DHT22;27758;55.900;8.516;2023-06-26T05:48:13;22.00;99.90
42099;DHT22;27758;55.900;8.516;2023-06-26T05:50:39;22.10;99.90
42099;DHT22;27758;55.900;8.516;2023-06-26T05:53:08;22.20;99.90
42099;DHT22;27758;55.900;8.516;2023-06-26T05:55:34;22.40;99.90
42099;DHT22;27758;55.900;8.516;2023-06-26T05:58:00;22.50;99.90
42099;DHT22;27758;55.900;8.516;2023-06-26T06:00:27;22.60;99.90
42099;DHT22;27758;55.900;8.516;2023-06-26T06:02:53;22.60;99.90
42099;DHT22;27758;55.900;8.516;2023-06-26T06:05:20;22.80;99.90
42099;DHT22;27758;55.900;8.516;2023-06-26T06:07:47;22.90;99.90
42099;DHT22;27758;55.900;8.516;2023-06-26T06:10:13;23.00;99.90
42099;DHT22;27758;55.900;8.516;2023-06-26T06:12:38;23.10;99.90
42099;DHT22;27758;55.900;8.516;2023-06-26T06:15:05;23.30;99.90
42099;DHT22;27758;55.900;8.516;2023-06-26T06:17:30;23.40;99.90
42099;DHT22;27758;55.900;8.516;2023-06-26T06:19:56;23.60;99.90
42099;DHT22;27758;55.900;8.516;2023-06-26T06:22:22;23.70;99.90
42099;DHT22;27758;55.900;8.516;2023-06-26T06:24:49;23.90;99.90
42099;DHT22;27758;55.900;8.516;2023-06-26T06:27:16;24.00;99.90
42099;DHT22;27758;55.900;8.516;2023-06-26T06:29:42;24.10;99.90
42099;DHT22;27758;55.900;8.516;2023-06-26T06:32:07;24.10;99.90
42099;DHT22;27758;55.900;8.516;2023-06-26T06:34:33;24.10;99.90
42099;DHT22;27758;55.900;8.516;2023-06-26T06:36:59;24.30;99.90
42099;DHT22;27758;55.900;8.516;2023-06-26T06:39:25;24.40;99.90
42099;DHT22;27758;55.900;8.516;2023-06-26T06:41:51;24.30;99.90
42099;DHT22;27758;55.900;8.516;2023-06-26T06:44:17;24.20;99.90
42099;DHT22;27758;55.900;8.516;2023-06-26T06:46:42;24.10;99.90
42099;DHT22;27758;55.900;8.516;2023-06-26T06:49:08;24.10;99.90
42099;DHT22;27758;55.900;8.516;2023-06-26T06:51:37;24.10;99.90
42099;DHT22;27758;55.900;8.516;2023-06-26T06:54:03;24.10;99.90
42099;DHT22;27758;55.900;8.516;2023-06-26T06:56:28;24.00;99.90
42099;DHT22;27758;55.900;8.516;2023-06-26T06:58:54;23.90;99.90
42099;DHT22;27758;55.900;8.516;2023-06-26T07:01:20;23.80;99.90
42099;DHT22;27758;55.900;8.516;2023-06-26T07:03:45;23.70;99.90
42099;DHT22;27758;55.900;8.516;2023-06-26T07:06:11;23.60;99.90
42099;DHT22;27758;55.900;8.516;2023-06-26T07:08:37;23.60;99.90
42099;DHT22;27758;55.900;8.516;2023-06-26T07:11:02;23.50;99.90
42099;DHT22;27758;55.900;8.516;2023-06-26T07:13:28;23.40;99.90
42099;DHT22;27758;55.900;8.516;2023-06-26T07:15:54;23.30;99.90
42099;DHT22;27758;55.900;8.516;2023-06-26T07:18:19;23.10;99.90
42099;DHT22;27758;55.900;8.516;2023-06-26T07:20:45;22.90;99.90
42099;DHT22;27758;55.900;8.516;2023-06-26T07:23:14;22.70;99.90
42099;DHT22;27758;55.900;8.516;2023-06-26T07:25:40;22.40;99.90
42099;DHT22;27758;55.900;8.516;2023-06-26T07:28:10;22.10;99.90
42099;DHT22;27758;55.900;8.516;2023-06-26T07:30:36;21.70;99.90
42099;DHT22;27758;55.900;8.516;2023-06-26T07:33:02;21.30;99.90
42099;DHT22;27758;55.900;8.516;2023-06-26T07:35:28;21.00;99.90
42099;DHT22;27758;55.900;8.516;2023-06-26T07:37:54;20.70;99.90
42099;DHT22;27758;55.900;8.516;2023-06-26T07:40:22;20.40;99.90
42099;DHT22;27758;55.900;8.516;2023-06-26T07:42:48;20.30;99.90
42099;DHT22;27758;55.900;8.516;2023-06-26T07:45:14;20.20;99.90
42099;DHT22;27758;55.900;8.516;2023-06-26T07:47:40;20.20;99.90
42099;DHT22;27758;55.900;8.516;2023-06-26T07:50:06;20.20;99.90
42099;DHT22;27758;55.900;8.516;2023-06-26T07:52:32;20.10;99.90
42099;DHT22;27758;55.900;8.516;2023-06-26T07:54:58;20.00;99.90
42099;DHT22;27758;55.900;8.516;2023-06-26T07:57:24;19.80;99.90
42099;DHT22;27758;55.900;8.516;2023-06-26T07:59:50;19.70;99.90
42099;DHT22;27758;55.900;8.516;2023-06-26T08:02:16;19.70;99.90
42099;DHT22;27758;55.900;8.516;2023-06-26T08:04:43;19.70;99.90
42099;DHT22;27758;55.900;8.516;2023-06-26T08:07:09;19.80;99.90
42099;DHT22;27758;55.900;8.516;2023-06-26T08:09:35;19.90;99.90
42099;DHT22;27758;55.900;8.516;2023-06-26T08:12:01;19.90;99.90
42099;DHT22;27758;55.900;8.516;2023-06-26T08:14:27;20.10;99.90
42099;DHT22;27758;55.900;8.516;2023-06-26T08:16:53;20.10;99.90
42099;DHT22;27758;55.900;8.516;2023-06-26T08:19:18;20.20;99.90
42099;DHT22;27758;55.900;8.516;2023-06-26T08:21:45;20.30;99.90
42099;DHT22;27758;55.900;8.516;2023-06-26T08:24:12;20.40;99.90
42099;DHT22;27758;55.900;8.516;2023-06-26T08:26:38;20.50;99.90
42099;DHT22;27758;55.900;8.516;2023-06-26T08:29:05;20.60;99.90
42099;DHT22;27758;55.900;8.516;2023-06-26T08:31:34;20.60;99.90
42099;DHT22;27758;55.900;8.516;2023-06-26T08:34:01;20.70;99.90
42099;DHT22;27758;55.900;8.516;2023-06-26T08:36:27;20.70;99.90
42099;DHT22;27758;55.900;8.516;2023-06-26T08:38:52;20.60;99.90
42099;DHT22;27758;55.900;8.516;2023-06-26T08:41:18;20.50;99.90
42099;DHT22;27758;55.900;8.516;2023-06-26T08:43:44;20.50;99.90
42099;DHT22;27758;55.900;8.516;2023-06-26T08:46:09;20.40;99.90
42099;DHT22;27758;55.900;8.516;2023-06-26T08:48:36;20.50;99.90
42099;DHT22;27758;55.900;8.516;2023-06-26T08:51:09;20.40;99.90
42099;DHT22;27758;55.900;8.516;2023-06-26T08:53:47;20.20;99.90
42099;DHT22;27758;55.900;8.516;2023-06-26T08:56:17;20.20;99.90
42099;DHT22;27758;55.900;8.516;2023-06-26T08:58:43;20.10;99.90
42099;DHT22;27758;55.900;8.516;2023-06-26T09:01:09;20.00;99.90
42099;DHT22;27758;55.900;8.516;2023-06-26T09:03:36;19.80;99.90
42099;DHT22;27758;55.900;8.516;2023-06-26T09:06:02;19.80;99.90
42099;DHT22;27758;55.900;8.516;2023-06-26T09:08:28;19.70;99.90
42099;DHT22;27758;55.900;8.516;2023-06-26T09:10:54;19.70;99.90
42099;DHT22;27758;55.900;8.516;2023-06-26T09:13:19;19.70;99.90
42099;DHT22;27758;55.900;8.516;2023-06-26T09:15:45;19.60;99.90
42099;DHT22;27758;55.900;8.516;2023-06-26T09:18:12;19.50;99.90
42099;DHT22;27758;55.900;8.516;2023-06-26T09:20:38;19.40;99.90
42099;DHT22;27758;55.900;8.516;2023-06-26T09:23:04;19.40;99.90
42099;DHT22;27758;55.900;8.516;2023-06-26T09:25:30;19.30;99.90
42099;DHT22;27758;55.900;8.516;2023-06-26T09:27:56;19.40;99.90
42099;DHT22;27758;55.900;8.516;2023-06-26T09:30:23;19.40;99.90
42099;DHT22;27758;55.900;8.516;2023-06-26T09:32:48;19.50;99.90
42099;DHT22;27758;55.900;8.516;2023-06-26T09:35:16;19.70;99.90
42099;DHT22;27758;55.900;8.516;2023-06-26T09:37:42;20.10;99.90
42099;DHT22;27758;55.900;8.516;2023-06-26T09:40:09;20.40;99.90
42099;DHT22;27758;55.900;8.516;2023-06-26T09:42:35;20.40;99.90
42099;DHT22;27758;55.900;8.516;2023-06-26T09:45:02;20.20;99.90
42099;DHT22;27758;55.900;8.516;2023-06-26T09:47:30;20.20;99.90
42099;DHT22;27758;55.900;8.516;2023-06-26T09:49:57;19.90;99.90
42099;DHT22;27758;55.900;8.516;2023-06-26T09:52:26;19.70;99.90
42099;DHT22;27758;55.900;8.516;2023-06-26T09:55:14;19.50;99.90
42099;DHT22;27758;55.900;8.516;2023-06-26T09:57:40;19.40;99.90
42099;DHT22;27758;55.900;8.516;2023-06-26T10:00:06;19.30;99.90
42099;DHT22;27758;55.900;8.516;2023-06-26T10:02:34;19.30;99.90
42099;DHT22;27758;55.900;8.516;2023-06-26T10:05:00;19.20;99.90
42099;DHT22;27758;55.900;8.516;2023-06-26T10:07:26;19.10;99.90
42099;DHT22;27758;55.900;8.516;2023-06-26T10:09:54;19.10;99.90
42099;DHT22;27758;55.900;8.516;2023-06-26T10:12:28;19.00;99.90
42099;DHT22;27758;55.900;8.516;2023-06-26T10:14:56;19.00;99.90
42099;DHT22;27758;55.900;8.516;2023-06-26T10:17:27;18.80;99.90
42099;DHT22;27758;55.900;8.516;2023-06-26T10:19:55;18.70;99.90
42099;DHT22;27758;55.900;8.516;2023-06-26T10:22:28;18.80;99.90
42099;DHT22;27758;55.900;8.516;2023-06-26T10:24:58;18.80;99.90
42099;DHT22;27758;55.900;8.516;2023-06-26T10:27:29;18.80;99.90
42099;DHT22;27758;55.900;8.516;2023-06-26T10:30:02;18.80;99.90
42099;DHT22;27758;55.900;8.516;2023-06-26T10:32:28;18.80;99.90
42099;DHT22;27758;55.900;8.516;2023-06-26T10:34:55;18.80;99.90
42099;DHT22;27758;55.900;8.516;2023-06-26T10:37:41;18.80;99.90
42099;DHT22;27758;55.900;8.516;2023-06-26T10:40:07;18.80;99.90
42099;DHT22;27758;55.900;8.516;2023-06-26T10:42:38;18.90;99.90
42099;DHT22;27758;55.900;8.516;2023-06-26T10:45:15;18.90;99.90
42099;DHT22;27758;55.900;8.516;2023-06-26T10:47:44;18.90;99.90
42099;DHT22;27758;55.900;8.516;2023-06-26T10:50:28;19.00;99.90
42099;DHT22;27758;55.900;8.516;2023-06-26T10:55:58;19.30;99.90
42099;DHT22;27758;55.900;8.516;2023-06-26T11:03:44;19.70;99.90
42099;DHT22;27758;55.900;8.516;2023-06-26T11:06:10;19.80;99.90
42099;DHT22;27758;55.900;8.516;2023-06-26T11:08:52;20.00;99.90
42099;DHT22;27758;55.900;8.516;2023-06-26T11:11:21;20.20;99.90
42099;DHT22;27758;55.900;8.516;2023-06-26T11:13:47;20.30;99.90
42099;DHT22;27758;55.900;8.516;2023-06-26T11:16:14;20.30;99.90
42099;DHT22;27758;55.900;8.516;2023-06-26T11:18:44;20.50;99.90
42099;DHT22;27758;55.900;8.516;2023-06-26T11:21:12;20.50;99.90
42099;DHT22;27758;55.900;8.516;2023-06-26T11:23:41;20.60;99.90
42099;DHT22;27758;55.900;8.516;2023-06-26T11:26:17;20.80;99.90
42099;DHT22;27758;55.900;8.516;2023-06-26T11:28:54;21.10;99.90
42099;DHT22;27758;55.900;8.516;2023-06-26T11:31:28;21.20;99.90
42099;DHT22;27758;55.900;8.516;2023-06-26T11:33:56;21.30;99.90
42099;DHT22;27758;55.900;8.516;2023-06-26T11:36:26;21.70;99.90
42099;DHT22;27758;55.900;8.516;2023-06-26T11:39:00;21.80;99.90
42099;DHT22;27758;55.900;8.516;2023-06-26T11:41:27;22.00;99.90
42099;DHT22;27758;55.900;8.516;2023-06-26T11:43:54;22.00;99.90
42099;DHT22;27758;55.900;8.516;2023-06-26T11:46:21;21.80;99.90
42099;DHT22;27758;55.900;8.516;2023-06-26T11:48:47;21.50;99.90
42099;DHT22;27758;55.900;8.516;2023-06-26T11:51:14;21.30;99.90
42099;DHT22;27758;55.900;8.516;2023-06-26T11:53:45;21.10;99.90
42099;DHT22;27758;55.900;8.516;2023-06-26T11:56:13;21.10;99.90
42099;DHT22;27758;55.900;8.516;2023-06-26T11:59:01;21.40;99.90
42099;DHT22;27758;55.900;8.516;2023-06-26T12:03:59;21.70;99.90
42099;DHT22;27758;55.900;8.516;2023-06-26T12:06:27;21.60;99.90
42099;DHT22;27758;55.900;8.516;2023-06-26T12:08:54;21.60;99.90
42099;DHT22;27758;55.900;8.516;2023-06-26T12:11:23;21.60;99.90
42099;DHT22;27758;55.900;8.516;2023-06-26T12:13:50;21.70;99.90
42099;DHT22;27758;55.900;8.516;2023-06-26T12:16:15;21.80;99.90
42099;DHT22;27758;55.900;8.516;2023-06-26T12:18:41;22.00;99.90
42099;DHT22;27758;55.900;8.516;2023-06-26T12:21:07;22.10;99.90
42099;DHT22;27758;55.900;8.516;2023-06-26T12:23:39;22.00;99.90
42099;DHT22;27758;55.900;8.516;2023-06-26T12:26:21;22.00;99.90
42099;DHT22;27758;55.900;8.516;2023-06-26T12:28:47;22.00;99.90
42099;DHT22;27758;55.900;8.516;2023-06-26T12:31:17;22.00;99.90
42099;DHT22;27758;55.900;8.516;2023-06-26T12:33:45;22.10;99.90
42099;DHT22;27758;55.900;8.516;2023-06-26T12:36:12;22.30;99.90
42099;DHT22;27758;55.900;8.516;2023-06-26T12:38:38;22.20;99.90
42099;DHT22;27758;55.900;8.516;2023-06-26T12:41:03;22.30;99.90
42099;DHT22;27758;55.900;8.516;2023-06-26T12:43:29;22.40;99.90
42099;DHT22;27758;55.900;8.516;2023-06-26T12:45:55;22.60;99.90
42099;DHT22;27758;55.900;8.516;2023-06-26T12:48:36;22.60;99.90
42099;DHT22;27758;55.900;8.516;2023-06-26T12:51:11;22.60;99.90
42099;DHT22;27758;55.900;8.516;2023-06-26T12:53:37;22.60;99.90
42099;DHT22;27758;55.900;8.516;2023-06-26T12:56:08;22.60;99.90
42099;DHT22;27758;55.900;8.516;2023-06-26T12:58:34;22.60;99.90
42099;DHT22;27758;55.900;8.516;2023-06-26T13:01:03;22.40;99.90
42099;DHT22;27758;55.900;8.516;2023-06-26T13:03:29;22.40;99.90
42099;DHT22;27758;55.900;8.516;2023-06-26T13:05:55;22.20;99.90
42099;DHT22;27758;55.900;8.516;2023-06-26T13:08:20;22.20;99.90
42099;DHT22;27758;55.900;8.516;2023-06-26T13:10:46;22.00;99.90
42099;DHT22;27758;55.900;8.516;2023-06-26T13:13:12;21.90;99.90
42099;DHT22;27758;55.900;8.516;2023-06-26T13:15:37;22.00;99.90
42099;DHT22;27758;55.900;8.516;2023-06-26T13:18:03;21.90;99.90
42099;DHT22;27758;55.900;8.516;2023-06-26T13:20:29;21.90;99.90
42099;DHT22;27758;55.900;8.516;2023-06-26T13:22:55;21.80;99.90
42099;DHT22;27758;55.900;8.516;2023-06-26T13:25:21;21.60;99.90
42099;DHT22;27758;55.900;8.516;2023-06-26T13:27:48;21.30;99.90
42099;DHT22;27758;55.900;8.516;2023-06-26T13:30:15;21.30;99.90
42099;DHT22;27758;55.900;8.516;2023-06-26T13:32:41;21.40;99.90
42099;DHT22;27758;55.900;8.516;2023-06-26T13:35:08;21.20;99.90
42099;DHT22;27758;55.900;8.516;2023-06-26T13:37:34;21.20;99.90
42099;DHT22;27758;55.900;8.516;2023-06-26T13:40:00;21.50;99.90
42099;DHT22;27758;55.900;8.516;2023-06-26T13:42:27;21.70;99.90
42099;DHT22;27758;55.900;8.516;2023-06-26T13:44:53;21.50;99.90
42099;DHT22;27758;55.900;8.516;2023-06-26T13:47:19;21.40;99.90
42099;DHT22;27758;55.900;8.516;2023-06-26T13:49:44;21.50;99.90
42099;DHT22;27758;55.900;8.516;2023-06-26T13:52:10;21.50;99.90
42099;DHT22;27758;55.900;8.516;2023-06-26T13:54:36;21.50;99.90
42099;DHT22;27758;55.900;8.516;2023-06-26T13:57:05;21.60;99.90
42099;DHT22;27758;55.900;8.516;2023-06-26T13:59:31;21.70;99.90
42099;DHT22;27758;55.900;8.516;2023-06-26T14:01:57;21.60;99.90
42099;DHT22;27758;55.900;8.516;2023-06-26T14:04:22;21.50;99.90
42099;DHT22;27758;55.900;8.516;2023-06-26T14:06:48;21.60;99.90
42099;DHT22;27758;55.900;8.516;2023-06-26T14:09:14;21.60;99.90
42099;DHT22;27758;55.900;8.516;2023-06-26T14:11:39;21.40;99.90
42099;DHT22;27758;55.900;8.516;2023-06-26T14:14:05;21.20;99.90
42099;DHT22;27758;55.900;8.516;2023-06-26T14:16:32;21.30;99.90
42099;DHT22;27758;55.900;8.516;2023-06-26T14:18:58;21.40;99.90
42099;DHT22;27758;55.900;8.516;2023-06-26T14:21:24;21.50;99.90
42099;DHT22;27758;55.900;8.516;2023-06-26T14:23:49;21.50;99.90
42099;DHT22;27758;55.900;8.516;2023-06-26T14:26:15;21.50;99.90
42099;DHT22;27758;55.900;8.516;2023-06-26T14:28:41;21.40;99.90
42099;DHT22;27758;55.900;8.516;2023-06-26T14:31:07;21.40;99.90
42099;DHT22;27758;55.900;8.516;2023-06-26T14:33:32;21.20;99.90
42099;DHT22;27758;55.900;8.516;2023-06-26T14:35:58;21.10;99.90
42099;DHT22;27758;55.900;8.516;2023-06-26T14:38:24;21.20;99.90
42099;DHT22;27758;55.900;8.516;2023-06-26T14:40:49;21.30;99.90
42099;DHT22;27758;55.900;8.516;2023-06-26T14:43:15;21.30;99.90
42099;DHT22;27758;55.900;8.516;2023-06-26T14:45:41;21.20;99.90
42099;DHT22;27758;55.900;8.516;2023-06-26T14:48:07;21.10;99.90
42099;DHT22;27758;55.900;8.516;2023-06-26T14:50:33;20.90;99.90
42099;DHT22;27758;55.900;8.516;2023-06-26T14:52:59;20.90;99.90
42099;DHT22;27758;55.900;8.516;2023-06-26T14:55:24;21.00;99.90
42099;DHT22;27758;55.900;8.516;2023-06-26T14:57:50;20.80;99.90
42099;DHT22;27758;55.900;8.516;2023-06-26T15:00:16;20.70;99.90
42099;DHT22;27758;55.900;8.516;2023-06-26T15:02:42;20.60;99.90
42099;DHT22;27758;55.900;8.516;2023-06-26T15:05:09;20.60;99.90
42099;DHT22;27758;55.900;8.516;2023-06-26T15:07:35;20.60;99.90
42099;DHT22;27758;55.900;8.516;2023-06-26T15:10:00;20.70;99.90
42099;DHT22;27758;55.900;8.516;2023-06-26T15:12:26;20.80;99.90
42099;DHT22;27758;55.900;8.516;2023-06-26T15:14:52;20.70;99.90
42099;DHT22;27758;55.900;8.516;2023-06-26T15:17:18;20.70;99.90
42099;DHT22;27758;55.900;8.516;2023-06-26T15:19:44;20.50;99.90
42099;DHT22;27758;55.900;8.516;2023-06-26T15:22:10;20.50;99.90
42099;DHT22;27758;55.900;8.516;2023-06-26T15:24:35;20.50;99.90
42099;DHT22;27758;55.900;8.516;2023-06-26T15:27:01;20.40;99.90
42099;DHT22;27758;55.900;8.516;2023-06-26T15:29:27;20.30;99.90
42099;DHT22;27758;55.900;8.516;2023-06-26T15:31:53;20.20;99.90
42099;DHT22;27758;55.900;8.516;2023-06-26T15:34:21;20.00;99.90
42099;DHT22;27758;55.900;8.516;2023-06-26T15:36:48;19.90;99.90
42099;DHT22;27758;55.900;8.516;2023-06-26T15:39:15;19.90;99.90
42099;DHT22;27758;55.900;8.516;2023-06-26T15:41:41;20.10;99.90
42099;DHT22;27758;55.900;8.516;2023-06-26T15:44:07;20.20;99.90
42099;DHT22;27758;55.900;8.516;2023-06-26T15:46:32;20.20;99.90